createdAt,value
2022-08-30T00:02:34.157Z,20.24
2022-08-30T00:07:35.804Z,20.23
2022-08-30T00:12:37.531Z,19.90
2022-08-30T00:17:40.472Z,19.52
2022-08-30T00:22:42.138Z,19.71
2022-08-30T00:27:43.685Z,19.74
2022-08-30T00:32:45.548Z,19.86
2022-08-30T00:37:48.313Z,19.82
2022-08-30T00:42:50.753Z,19.89
2022-08-30T00:47:53.516Z,19.99
2022-08-30T00:53:00.076Z,20.08
2022-08-30T00:58:05.011Z,20.25
2022-08-30T01:03:06.796Z,20.30
2022-08-30T01:08:09.041Z,20.23
2022-08-30T01:13:12.201Z,20.03
2022-08-30T01:18:14.785Z,19.33
2022-08-30T01:23:19.896Z,19.10
2022-08-30T01:28:24.764Z,19.08
2022-08-30T01:33:26.394Z,19.07
2022-08-30T01:38:36.806Z,19.24
2022-08-30T01:43:38.892Z,19.36
2022-08-30T01:48:50.320Z,19.56
2022-08-30T01:53:55.987Z,19.59
2022-08-30T01:59:02.673Z,19.63
2022-08-30T02:04:05.736Z,19.47
2022-08-30T02:09:07.454Z,19.53
2022-08-30T02:14:09.022Z,19.60
2022-08-30T02:19:11.425Z,19.70
2022-08-30T02:24:14.503Z,19.81
2022-08-30T02:29:16.174Z,19.75
2022-08-30T02:34:18.587Z,19.71
2022-08-30T02:39:20.168Z,19.72
2022-08-30T02:44:21.804Z,19.70
2022-08-30T02:49:33.157Z,19.59
2022-08-30T02:54:35.619Z,19.60
2022-08-30T02:59:37.245Z,19.51
2022-08-30T03:04:39.418Z,19.51
2022-08-30T03:09:41.060Z,19.57
2022-08-30T03:14:42.698Z,19.65
2022-08-30T03:19:44.757Z,19.55
2022-08-30T03:24:46.372Z,19.47
2022-08-30T03:29:47.913Z,19.56
2022-08-30T03:34:49.709Z,19.41
2022-08-30T03:39:51.368Z,19.28
2022-08-30T03:44:52.939Z,19.15
2022-08-30T03:49:55.385Z,19.08
2022-08-30T03:54:56.948Z,18.94
2022-08-30T03:59:58.538Z,18.80
2022-08-30T04:05:00.201Z,18.55
2022-08-30T04:10:02.419Z,18.41
2022-08-30T04:15:05.044Z,18.16
2022-08-30T04:20:07.257Z,17.99
2022-08-30T04:25:15.630Z,17.59
2022-08-30T04:30:18.260Z,17.23
2022-08-30T04:35:20.264Z,17.11
2022-08-30T04:40:22.026Z,17.07
2022-08-30T04:45:23.743Z,16.93
2022-08-30T04:50:25.722Z,16.95
2022-08-30T04:55:27.304Z,16.95
2022-08-30T05:00:29.252Z,16.94
2022-08-30T05:05:30.955Z,17.21
2022-08-30T05:10:32.749Z,17.59
2022-08-30T05:15:34.706Z,17.82
2022-08-30T05:20:37.635Z,18.01
2022-08-30T05:25:40.906Z,17.98
2022-08-30T05:30:42.492Z,18.17
2022-08-30T05:35:44.034Z,18.49
2022-08-30T05:40:45.814Z,18.79
2022-08-30T05:45:47.927Z,18.96
2022-08-30T05:50:49.546Z,18.84
2022-08-30T05:55:51.127Z,18.55
2022-08-30T06:00:52.740Z,18.96
2022-08-30T06:05:54.762Z,19.77
2022-08-30T06:10:56.426Z,19.90
2022-08-30T06:15:58.135Z,20.12
2022-08-30T06:20:59.800Z,20.53
2022-08-30T06:26:06.713Z,21.92
2022-08-30T06:31:10.770Z,22.41
2022-08-30T06:36:21.730Z,23.47
2022-08-30T06:41:27.218Z,22.97
2022-08-30T06:46:31.608Z,21.70
2022-08-30T06:51:39.730Z,21.71
2022-08-30T06:56:55.174Z,21.32
2022-08-30T07:01:59.602Z,20.88
2022-08-30T07:07:01.312Z,22.13
2022-08-30T07:12:03.261Z,23.42
2022-08-30T07:17:05.740Z,24.98
2022-08-30T07:22:07.507Z,24.26
2022-08-30T07:27:09.599Z,24.60
2022-08-30T07:32:11.286Z,24.66
2022-08-30T07:37:18.028Z,25.11
2022-08-30T07:42:19.932Z,24.50
2022-08-30T07:47:21.684Z,23.64
2022-08-30T07:52:23.290Z,25.13
2022-08-30T07:57:25.894Z,24.59
2022-08-30T08:02:28.054Z,25.47
2022-08-30T08:07:31.336Z,25.97
2022-08-30T08:12:35.257Z,26.47
2022-08-30T08:17:36.899Z,27.05
2022-08-30T08:22:40.138Z,28.23
2022-08-30T08:27:42.363Z,27.54
2022-08-30T08:32:44.805Z,26.11
2022-08-30T08:37:46.620Z,25.81
2022-08-30T08:43:01.679Z,26.32
2022-08-30T08:48:11.894Z,25.94
2022-08-30T08:53:45.457Z,27.50
2022-08-30T08:58:50.005Z,29.25
2022-08-30T09:03:52.046Z,28.53
2022-08-30T09:08:53.685Z,30.43
2022-08-30T09:13:55.664Z,30.69
2022-08-30T09:18:58.519Z,31.15
2022-08-30T09:24:04.105Z,29.44
2022-08-30T09:29:16.860Z,30.59
2022-08-30T09:34:21.401Z,33.01
2022-08-30T09:39:35.448Z,31.90
2022-08-30T09:44:38.624Z,29.78
2022-08-30T09:49:43.866Z,29.03
2022-08-30T09:54:59.863Z,31.13
2022-08-30T10:05:52.576Z,30.90
2022-08-30T10:11:00.928Z,32.46
2022-08-30T10:16:17.850Z,32.62
2022-08-30T10:21:39.147Z,31.58
2022-08-30T10:26:53.580Z,30.19
2022-08-30T10:32:06.428Z,29.27
2022-08-30T10:37:23.526Z,30.88
2022-08-30T10:42:30.588Z,32.29
2022-08-30T10:48:27.672Z,31.36
2022-08-30T10:53:34.244Z,32.07
2022-08-30T10:58:38.907Z,32.37
2022-08-30T11:04:14.347Z,34.56
2022-08-30T11:09:36.523Z,32.52
2022-08-30T11:14:44.116Z,33.36
2022-08-30T11:19:45.859Z,31.97
2022-08-30T11:25:16.579Z,31.94
2022-08-30T11:30:26.544Z,33.29
2022-08-30T11:35:54.832Z,32.45
2022-08-30T11:40:56.312Z,35.27
2022-08-30T11:46:27.184Z,35.46
2022-08-30T11:52:23.562Z,35.13
2022-08-30T11:57:42.501Z,35.31
2022-08-30T12:02:55.058Z,33.89
2022-08-30T12:08:02.514Z,34.69
2022-08-30T12:13:04.683Z,33.12
2022-08-30T12:18:15.659Z,35.67
2022-08-30T12:23:17.528Z,33.24
2022-08-30T12:28:25.366Z,34.60
2022-08-30T12:33:36.546Z,35.06
2022-08-30T12:38:43.975Z,34.88
2022-08-30T12:43:51.363Z,34.91
2022-08-30T12:48:54.178Z,34.31
2022-08-30T12:54:07.160Z,35.04
2022-08-30T12:59:09.144Z,34.92
2022-08-30T13:04:21.328Z,34.79
2022-08-30T13:09:32.301Z,35.12
2022-08-30T13:14:42.328Z,34.79
2022-08-30T13:20:19.504Z,35.14
2022-08-30T13:25:21.179Z,35.49
2022-08-30T13:30:22.747Z,35.20
2022-08-30T13:35:25.225Z,34.78
2022-08-30T13:40:26.910Z,33.82
2022-08-30T13:45:43.927Z,35.43
2022-08-30T13:50:48.569Z,34.26
2022-08-30T13:55:53.528Z,35.17
2022-08-30T14:00:55.337Z,35.58
2022-08-30T14:06:34.081Z,34.08
2022-08-30T14:11:21.072Z,34.13
2022-08-30T14:16:30.283Z,35.57
2022-08-30T14:21:32.090Z,35.51
2022-08-30T14:26:39.266Z,36.63
2022-08-30T14:31:42.487Z,34.35
2022-08-30T14:36:45.679Z,34.88
2022-08-30T14:41:50.598Z,33.85
2022-08-30T14:46:52.512Z,33.33
2022-08-30T14:51:55.513Z,32.75
2022-08-30T14:56:57.710Z,32.98
2022-08-30T15:01:59.375Z,32.78
2022-08-30T15:07:01.306Z,34.38
2022-08-30T15:12:04.237Z,34.78
2022-08-30T15:17:06.321Z,35.25
2022-08-30T15:22:07.885Z,32.98
2022-08-30T15:27:10.161Z,33.39
2022-08-30T15:32:11.783Z,33.05
2022-08-30T15:37:13.592Z,32.99
2022-08-30T15:42:19.457Z,32.47
2022-08-30T15:47:23.035Z,31.85
2022-08-30T15:52:26.100Z,31.24
2022-08-30T15:57:28.750Z,30.87
2022-08-30T16:02:30.376Z,30.87
2022-08-30T16:07:32.099Z,31.07
2022-08-30T16:12:33.741Z,30.75
2022-08-30T16:17:35.399Z,31.41
2022-08-30T16:22:38.288Z,31.12
2022-08-30T16:27:39.936Z,31.42
2022-08-30T16:32:41.688Z,30.61
2022-08-30T16:37:43.841Z,30.34
2022-08-30T16:42:45.470Z,30.35
2022-08-30T16:47:54.273Z,30.48
2022-08-30T16:52:56.018Z,30.59
2022-08-30T16:57:57.796Z,30.36
2022-08-30T17:03:00.149Z,29.88
2022-08-30T17:08:03.425Z,29.08
2022-08-30T17:13:05.163Z,29.22
2022-08-30T17:18:08.013Z,28.66
2022-08-30T17:23:10.223Z,28.71
2022-08-30T17:28:11.788Z,28.51
2022-08-30T17:33:13.977Z,28.31
2022-08-30T17:38:15.620Z,28.17
2022-08-30T17:43:17.257Z,28.06
2022-08-30T17:48:19.311Z,27.75
2022-08-30T17:53:20.929Z,27.70
2022-08-30T17:58:22.560Z,27.56
2022-08-30T18:03:24.418Z,27.37
2022-08-30T18:08:26.124Z,27.22
2022-08-30T18:13:28.081Z,26.97
2022-08-30T18:18:31.469Z,26.90
2022-08-30T18:23:33.644Z,26.77
2022-08-30T18:28:35.321Z,26.68
2022-08-30T18:33:37.035Z,26.48
2022-08-30T18:38:42.416Z,26.43
2022-08-30T18:43:44.810Z,26.35
2022-08-30T18:48:47.859Z,26.26
2022-08-30T18:53:49.535Z,26.17
2022-08-30T18:58:51.112Z,26.13
2022-08-30T19:03:52.743Z,26.00
2022-08-30T19:08:54.443Z,25.87
2022-08-30T19:13:56.049Z,25.78
2022-08-30T19:18:57.833Z,25.69
2022-08-30T19:23:59.408Z,25.60
2022-08-30T19:29:01.706Z,25.56
2022-08-30T19:34:03.947Z,25.45
2022-08-30T19:39:05.648Z,25.38
2022-08-30T19:44:07.660Z,25.28
2022-08-30T19:49:10.875Z,25.28
2022-08-30T19:54:12.448Z,25.09
2022-08-30T19:59:14.392Z,25.04
2022-08-30T20:04:16.016Z,24.90
2022-08-30T20:09:19.658Z,24.81
2022-08-30T20:14:21.395Z,24.79
2022-08-30T20:19:27.278Z,24.59
2022-08-30T20:24:29.993Z,24.59
2022-08-30T20:29:31.598Z,24.60
2022-08-30T20:34:33.242Z,24.45
2022-08-30T20:39:34.881Z,24.47
2022-08-30T20:44:37.300Z,24.36
2022-08-30T20:49:38.889Z,24.32
2022-08-30T20:54:40.565Z,24.28
2022-08-30T20:59:42.186Z,24.30
2022-08-30T21:04:44.023Z,24.16
2022-08-30T21:09:45.570Z,24.11
2022-08-30T21:14:47.195Z,24.12
2022-08-30T21:19:48.765Z,24.03
2022-08-30T21:24:51.028Z,24.02
2022-08-30T21:29:52.675Z,23.94
2022-08-30T21:34:54.241Z,23.87
2022-08-30T21:39:55.789Z,23.84
2022-08-30T21:44:57.375Z,23.87
2022-08-30T21:49:58.990Z,23.83
2022-08-30T21:55:00.655Z,23.99
2022-08-30T22:00:05.320Z,23.93
2022-08-30T22:05:07.128Z,23.80
2022-08-30T22:10:11.121Z,23.73
2022-08-30T22:15:12.726Z,23.71
2022-08-30T22:20:18.464Z,23.68
2022-08-30T22:25:20.374Z,23.66
2022-08-30T22:30:22.110Z,23.64
2022-08-30T22:35:23.759Z,23.55
2022-08-30T22:40:25.432Z,23.52
2022-08-30T22:45:28.383Z,23.55
2022-08-30T22:50:30.173Z,23.52
2022-08-30T22:55:32.255Z,23.52
2022-08-30T23:00:33.967Z,23.54
2022-08-30T23:05:35.979Z,23.53
2022-08-30T23:10:37.694Z,23.47
2022-08-30T23:15:39.366Z,23.49
2022-08-30T23:20:43.024Z,23.67
2022-08-30T23:25:44.724Z,23.63
2022-08-30T23:30:46.344Z,23.55
2022-08-30T23:35:47.975Z,23.52
2022-08-30T23:40:49.711Z,23.42
2022-08-30T23:45:51.289Z,23.35
2022-08-30T23:50:52.882Z,23.27
2022-08-30T23:55:54.701Z,23.11
